Terminal Aerodrome Forecast
Issued by NWS

Home | Current Version | Previous Version | Text Only | Print | Product List | Glossary On
Versions: 1 2 3 4 5 6 7 8 9 10 11 12 13 14 15 16 17
000
FTUS41 KBTV 221700
TAFSLK
TAF
KSLK 221726Z 2218/2318 28010G20KT P6SM BKN012 OVC020
     FM222300 27005KT P6SM BKN025
     FM231400 24007KT P6SM OVC050=

USA.gov is the U.S. government's official web portal to all federal, state and local government web resources and services.